Time;durP1;ratioP1;P1;durP2;ratioP2;P2;SDS_P1;SDS_P2;PMS_P1;PMS_P2;Temp;Humidity;BMP_temperature;BMP_pressure;BME280_temperature;BME280_humidity;BME280_pressure;Samples;Min_cycle;Max_cycle;Signal;HPM_P1;HPM_P2
2024/01/17 00:01:35;;;;;;;31.20;18.60;;;;;;;-5.71;76.68;99866.99;112889;242;38288;-69
2024/01/17 00:04:09;;;;;;;35.70;20.60;;;;;;;-5.69;76.73;99865.49;112881;242;39021;-70
2024/01/17 00:06:43;;;;;;;35.60;18.60;;;;;;;-5.73;76.72;99859.14;112899;242;39590;-68
2024/01/17 00:09:16;;;;;;;31.20;18.10;;;;;;;-5.76;76.97;99855.36;112872;242;40102;-68
2024/01/17 00:11:50;;;;;;;41.00;20.70;;;;;;;-5.78;77.12;99854.12;112900;242;38543;-69
2024/01/17 00:14:24;;;;;;;31.70;17.90;;;;;;;-5.80;77.42;99850.85;112883;242;38443;-69
2024/01/17 00:16:59;;;;;;;28.10;16.60;;;;;;;-5.83;77.68;99857.59;112789;242;175562;-68
2024/01/17 00:19:33;;;;;;;27.30;15.60;;;;;;;-5.83;77.73;99867.09;112958;242;39396;-68
2024/01/17 00:22:07;;;;;;;25.10;16.00;;;;;;;-5.79;78.21;99865.82;112934;242;38956;-70
2024/01/17 00:24:41;;;;;;;28.70;15.80;;;;;;;-5.77;78.34;99858.56;112893;242;39020;-70
2024/01/17 00:27:14;;;;;;;27.70;15.80;;;;;;;-5.70;78.85;99858.85;112950;242;38239;-68
2024/01/17 00:29:48;;;;;;;25.20;14.90;;;;;;;-5.67;78.90;99855.67;112911;242;38403;-68
2024/01/17 00:32:22;;;;;;;34.90;16.10;;;;;;;-5.66;78.95;99853.31;112730;242;39130;-68
2024/01/17 00:34:57;;;;;;;27.70;15.40;;;;;;;-5.63;79.37;99855.58;112913;242;39014;-68
2024/01/17 00:37:31;;;;;;;27.60;17.20;;;;;;;-5.63;79.62;99852.52;112925;241;38539;-69
2024/01/17 00:40:06;;;;;;;26.10;14.60;;;;;;;-5.62;79.72;99850.16;112880;241;38461;-69
2024/01/17 00:42:40;;;;;;;23.90;14.60;;;;;;;-5.57;79.73;99847.54;112861;241;38229;-70
2024/01/17 00:45:15;;;;;;;22.70;13.90;;;;;;;-5.49;79.77;99845.98;112877;241;38923;-70
2024/01/17 00:47:49;;;;;;;23.10;13.90;;;;;;;-5.41;79.93;99849.20;112852;241;39956;-68
2024/01/17 00:50:22;;;;;;;24.30;14.80;;;;;;;-5.33;80.07;99850.70;112924;241;38367;-69
2024/01/17 00:52:56;;;;;;;25.00;15.40;;;;;;;-5.26;80.35;99847.60;112898;241;39152;-69
2024/01/17 00:55:30;;;;;;;25.80;15.80;;;;;;;-5.23;80.54;99842.04;112851;241;38711;-69
2024/01/17 00:58:03;;;;;;;24.90;16.20;;;;;;;-5.23;80.89;99842.88;112862;241;39761;-70
2024/01/17 01:00:39;;;;;;;28.00;17.50;;;;;;;-5.23;80.72;99842.52;112878;241;39789;-69
2024/01/17 01:03:12;;;;;;;34.10;17.70;;;;;;;-5.23;80.95;99842.36;112870;241;38333;-68
2024/01/17 01:05:46;;;;;;;27.70;16.00;;;;;;;-5.20;81.14;99847.69;112851;241;38445;-70
2024/01/17 01:08:20;;;;;;;26.30;16.60;;;;;;;-5.14;81.23;99843.37;112885;241;38450;-70
2024/01/17 01:10:54;;;;;;;28.50;16.20;;;;;;;-5.08;81.62;99838.21;112894;241;38310;-69
2024/01/17 01:13:27;;;;;;;31.00;19.30;;;;;;;-5.03;81.55;99832.67;112894;241;38419;-69
2024/01/17 01:16:03;;;;;;;36.90;20.40;;;;;;;-4.98;81.93;99828.65;112892;241;39211;-71
2024/01/17 01:18:37;;;;;;;39.50;22.70;;;;;;;-4.97;81.83;99828.17;112885;241;38579;-71
2024/01/17 01:21:11;;;;;;;43.20;24.00;;;;;;;-4.94;82.06;99829.90;112884;241;39354;-69
2024/01/17 01:23:44;;;;;;;45.50;25.60;;;;;;;-4.94;81.97;99825.66;112856;241;38507;-68
2024/01/17 01:26:18;;;;;;;35.20;21.20;;;;;;;-4.90;82.18;99827.77;112885;241;38976;-68
2024/01/17 01:28:52;;;;;;;35.50;20.70;;;;;;;-4.84;82.16;99822.23;112195;241;918657;-68
2024/01/17 01:31:25;;;;;;;45.40;23.80;;;;;;;-4.77;82.14;99813.50;112895;241;38336;-70
2024/01/17 01:33:59;;;;;;;41.40;24.00;;;;;;;-4.73;82.18;99818.84;112840;241;39760;-70
2024/01/17 01:36:33;;;;;;;44.40;24.80;;;;;;;-4.68;81.97;99816.52;112853;241;37918;-70
2024/01/17 01:39:07;;;;;;;46.10;26.10;;;;;;;-4.63;81.93;99819.64;112824;241;38699;-71
2024/01/17 01:41:40;;;;;;;47.40;28.80;;;;;;;-4.63;81.89;99818.98;112877;241;38433;-70
2024/01/17 01:44:14;;;;;;;46.30;24.60;;;;;;;-4.63;81.89;99812.50;112898;241;38878;-70
2024/01/17 01:46:48;;;;;;;42.90;24.00;;;;;;;-4.63;81.94;99815.58;112852;241;38233;-70
2024/01/17 01:49:21;;;;;;;42.80;24.70;;;;;;;-4.61;81.69;99817.14;112836;241;39651;-70
2024/01/17 01:51:55;;;;;;;45.70;26.30;;;;;;;-4.56;81.86;99817.04;112863;241;38342;-68
2024/01/17 01:54:29;;;;;;;49.20;26.50;;;;;;;-4.51;81.83;99813.70;112865;241;38346;-68
2024/01/17 01:57:03;;;;;;;53.00;27.30;;;;;;;-4.50;81.71;99805.38;112917;241;39191;-68
2024/01/17 01:59:37;;;;;;;52.80;29.00;;;;;;;-4.48;81.79;99804.56;112895;241;38805;-68
2024/01/17 02:02:11;;;;;;;49.70;28.50;;;;;;;-4.47;81.80;99802.18;112903;241;38535;-69
2024/01/17 02:04:45;;;;;;;51.50;27.40;;;;;;;-4.49;81.75;99804.17;112152;241;917544;-69
2024/01/17 02:07:19;;;;;;;48.80;25.00;;;;;;;-4.49;81.70;99801.98;112929;241;38829;-68
2024/01/17 02:09:53;;;;;;;45.90;24.20;;;;;;;-4.45;81.70;99800.49;112917;241;38236;-68
2024/01/17 02:12:27;;;;;;;45.80;26.70;;;;;;;-4.42;81.50;99795.27;112815;241;38438;-69
2024/01/17 02:15:01;;;;;;;46.70;26.10;;;;;;;-4.37;81.71;99795.50;112879;241;38746;-70
2024/01/17 02:17:35;;;;;;;49.80;27.00;;;;;;;-4.32;81.68;99792.50;112824;241;39463;-68
2024/01/17 02:20:10;;;;;;;52.50;27.70;;;;;;;-4.31;81.60;99793.88;112852;241;39481;-68
2024/01/17 02:22:44;;;;;;;51.90;27.80;;;;;;;-4.32;81.51;99793.88;112844;241;38696;-69
2024/01/17 02:25:18;;;;;;;53.60;29.40;;;;;;;-4.34;81.55;99792.30;112857;241;39578;-70
2024/01/17 02:27:52;;;;;;;53.10;27.40;;;;;;;-4.36;81.50;99793.80;112832;241;39596;-69
2024/01/17 02:30:25;;;;;;;53.80;26.80;;;;;;;-4.38;81.42;99793.63;112891;241;38317;-69
2024/01/17 02:33:00;;;;;;;50.00;26.60;;;;;;;-4.35;81.31;99791.60;112740;241;175484;-70
2024/01/17 02:35:36;;;;;;;53.50;27.50;;;;;;;-4.33;81.34;99790.45;112857;241;39738;-69
2024/01/17 02:38:10;;;;;;;53.50;29.30;;;;;;;-4.31;81.35;99792.35;112873;241;38752;-70
2024/01/17 02:40:44;;;;;;;56.50;29.60;;;;;;;-4.28;81.39;99793.06;112897;241;38861;-70
2024/01/17 02:43:17;;;;;;;50.40;29.00;;;;;;;-4.28;81.35;99787.45;112895;241;38256;-70
2024/01/17 02:45:51;;;;;;;55.10;30.40;;;;;;;-4.30;81.33;99782.48;112881;241;38973;-69
2024/01/17 02:48:25;;;;;;;57.90;31.40;;;;;;;-4.33;81.36;99783.82;112893;241;39410;-69
2024/01/17 02:50:59;;;;;;;52.60;27.90;;;;;;;-4.34;81.35;99787.17;112877;241;39103;-68
2024/01/17 02:53:32;;;;;;;50.40;27.00;;;;;;;-4.35;81.29;99786.66;112878;241;38327;-68
2024/01/17 02:56:06;;;;;;;50.20;26.40;;;;;;;-4.31;81.31;99789.45;112872;241;38336;-69
2024/01/17 02:58:40;;;;;;;49.20;27.80;;;;;;;-4.23;81.39;99790.73;112871;241;38910;-69
2024/01/17 03:01:15;;;;;;;51.90;28.80;;;;;;;-4.24;81.10;99790.72;112935;241;38293;-70
2024/01/17 03:03:48;;;;;;;58.30;30.80;;;;;;;-4.28;81.19;99778.08;112903;241;38245;-70
2024/01/17 03:06:22;;;;;;;59.10;31.50;;;;;;;-4.30;81.24;99776.18;112863;241;39918;-69
2024/01/17 03:08:55;;;;;;;56.20;30.60;;;;;;;-4.31;81.32;99778.55;112860;241;39357;-70
2024/01/17 03:11:30;;;;;;;60.00;32.70;;;;;;;-4.29;81.56;99776.70;112857;241;38472;-70
2024/01/17 03:14:06;;;;;;;56.00;29.60;;;;;;;-4.28;81.65;99770.92;112855;241;38317;-70
2024/01/17 03:16:40;;;;;;;51.10;26.00;;;;;;;-4.27;81.50;99767.88;112848;241;40171;-69
2024/01/17 03:19:15;;;;;;;50.80;26.40;;;;;;;-4.24;81.46;99765.19;112850;241;38681;-69
2024/01/17 03:21:50;;;;;;;48.10;26.90;;;;;;;-4.20;81.41;99763.02;112877;241;39545;-69
2024/01/17 03:24:24;;;;;;;47.40;25.20;;;;;;;-4.14;81.60;99765.80;112866;241;38460;-69
2024/01/17 03:26:58;;;;;;;52.70;28.90;;;;;;;-4.12;81.56;99763.95;112872;241;39647;-69
2024/01/17 03:29:31;;;;;;;52.40;27.80;;;;;;;-4.11;81.52;99766.52;112917;241;38159;-69
2024/01/17 03:32:05;;;;;;;52.90;27.60;;;;;;;-4.15;81.34;99768.02;112879;241;38596;-71
2024/01/17 03:34:39;;;;;;;50.60;28.20;;;;;;;-4.21;81.49;99769.80;112940;241;40160;-71
2024/01/17 03:37:12;;;;;;;53.20;26.20;;;;;;;-4.25;81.46;99771.98;112851;241;38819;-69
2024/01/17 03:39:48;;;;;;;54.90;27.50;;;;;;;-4.25;81.49;99771.80;112884;241;39112;-69
2024/01/17 03:42:22;;;;;;;44.80;25.40;;;;;;;-4.25;81.49;99765.67;112913;241;38330;-71
2024/01/17 03:44:55;;;;;;;45.60;25.00;;;;;;;-4.25;81.20;99767.55;112734;241;175430;-71
2024/01/17 03:47:29;;;;;;;47.00;27.00;;;;;;;-4.27;81.33;99766.50;112871;241;38270;-69
2024/01/17 03:50:03;;;;;;;51.70;28.20;;;;;;;-4.29;81.46;99769.88;112870;241;38320;-69
2024/01/17 03:52:37;;;;;;;46.90;26.10;;;;;;;-4.30;81.59;99768.68;112886;241;38510;-70
2024/01/17 03:55:12;;;;;;;52.10;30.20;;;;;;;-4.33;81.62;99765.77;112865;241;38626;-70
2024/01/17 03:57:46;;;;;;;47.10;25.60;;;;;;;-4.36;81.68;99765.37;112856;241;38813;-70
2024/01/17 04:00:21;;;;;;;50.40;25.00;;;;;;;-4.39;81.62;99766.70;112841;241;40062;-70
2024/01/17 04:02:55;;;;;;;46.50;25.50;;;;;;;-4.41;81.52;99764.13;112760;241;175447;-70
2024/01/17 04:05:29;;;;;;;44.40;24.80;;;;;;;-4.39;81.68;99766.52;112885;241;38240;-70
2024/01/17 04:08:02;;;;;;;47.80;26.30;;;;;;;-4.35;81.82;99771.52;112889;241;38527;-70
2024/01/17 04:10:36;;;;;;;47.70;27.70;;;;;;;-4.31;81.99;99766.96;112755;241;175443;-71
2024/01/17 04:13:10;;;;;;;49.30;26.20;;;;;;;-4.31;81.86;99770.04;112850;241;39012;-70
2024/01/17 04:15:44;;;;;;;48.20;26.60;;;;;;;-4.36;81.85;99768.09;112902;241;38539;-69
2024/01/17 04:18:19;;;;;;;48.40;25.50;;;;;;;-4.41;81.90;99768.55;112820;241;38573;-69
2024/01/17 04:20:53;;;;;;;47.40;24.70;;;;;;;-4.45;81.81;99765.10;112880;241;38839;-69
2024/01/17 04:23:26;;;;;;;42.80;23.90;;;;;;;-4.46;81.74;99767.64;112883;241;39855;-69
2024/01/17 04:26:00;;;;;;;40.50;22.80;;;;;;;-4.48;81.65;99767.80;112864;241;38501;-69
2024/01/17 04:28:34;;;;;;;45.40;24.00;;;;;;;-4.42;82.05;99770.23;112886;241;38841;-69
2024/01/17 04:31:08;;;;;;;48.40;24.70;;;;;;;-4.37;81.99;99772.02;112918;241;38506;-69
2024/01/17 04:33:41;;;;;;;46.10;24.00;;;;;;;-4.34;82.16;99772.04;112923;241;38317;-69
2024/01/17 04:36:16;;;;;;;43.80;24.30;;;;;;;-4.31;82.11;99770.38;112885;241;39773;-70
2024/01/17 04:38:50;;;;;;;45.10;25.90;;;;;;;-4.30;82.09;99772.26;112865;241;38567;-70
2024/01/17 04:41:24;;;;;;;46.60;26.30;;;;;;;-4.32;82.08;99773.77;112871;241;38337;-69
2024/01/17 04:43:58;;;;;;;47.40;23.90;;;;;;;-4.33;82.21;99774.61;112875;241;38526;-69
2024/01/17 04:46:35;;;;;;;40.00;23.50;;;;;;;-4.33;81.99;99774.60;112875;241;38408;-70
2024/01/17 04:49:09;;;;;;;44.10;23.60;;;;;;;-4.32;82.09;99767.14;112832;241;38836;-70
2024/01/17 04:51:43;;;;;;;42.40;24.40;;;;;;;-4.27;82.05;99761.05;112877;241;38507;-69
2024/01/17 04:54:17;;;;;;;46.00;24.80;;;;;;;-4.23;82.20;99756.86;112861;241;38454;-69
2024/01/17 04:56:51;;;;;;;44.30;24.90;;;;;;;-4.23;82.06;99760.10;112809;241;39526;-68
2024/01/17 04:59:25;;;;;;;48.50;24.80;;;;;;;-4.20;82.19;99760.29;112929;241;38453;-68
2024/01/17 05:01:58;;;;;;;46.00;24.30;;;;;;;-4.20;82.12;99758.23;112928;241;38807;-70
2024/01/17 05:04:32;;;;;;;47.20;25.20;;;;;;;-4.23;81.98;99759.23;112914;241;39447;-70
2024/01/17 05:07:06;;;;;;;40.60;22.20;;;;;;;-4.25;82.20;99757.16;112656;241;360317;-70
2024/01/17 05:09:39;;;;;;;38.50;21.40;;;;;;;-4.26;82.09;99762.61;112927;241;38323;-70
2024/01/17 05:12:13;;;;;;;35.90;20.40;;;;;;;-4.25;82.02;99762.10;112940;241;38624;-70
2024/01/17 05:14:47;;;;;;;38.50;21.60;;;;;;;-4.22;82.06;99753.63;112996;241;39609;-70
2024/01/17 05:17:20;;;;;;;41.90;22.40;;;;;;;-4.17;82.14;99756.75;112936;241;39780;-70
2024/01/17 05:19:54;;;;;;;44.40;24.30;;;;;;;-4.18;82.07;99759.80;112924;241;38338;-70
2024/01/17 05:22:28;;;;;;;45.60;24.10;;;;;;;-4.21;82.02;99754.48;112916;241;38701;-69
2024/01/17 05:25:01;;;;;;;43.90;24.30;;;;;;;-4.22;81.96;99754.99;112951;241;39512;-69
2024/01/17 05:27:35;;;;;;;47.30;24.50;;;;;;;-4.26;81.94;99756.65;112932;241;38859;-69
2024/01/17 05:30:11;;;;;;;44.80;23.90;;;;;;;-4.31;81.89;99753.86;112978;241;38858;-69
2024/01/17 05:32:46;;;;;;;39.40;22.40;;;;;;;-4.34;82.09;99757.05;112900;241;40026;-69
2024/01/17 05:35:21;;;;;;;37.20;21.80;;;;;;;-4.37;82.00;99754.48;112850;241;38771;-69
2024/01/17 05:37:55;;;;;;;36.40;20.80;;;;;;;-4.32;82.28;99755.04;112845;241;38501;-69
2024/01/17 05:40:31;;;;;;;43.80;23.20;;;;;;;-4.28;82.16;99760.89;112896;241;38442;-69
2024/01/17 05:43:06;;;;;;;43.30;24.20;;;;;;;-4.23;82.24;99762.80;112684;241;172932;-68
2024/01/17 05:45:39;;;;;;;42.40;24.20;;;;;;;-4.22;82.30;99762.31;112884;241;39462;-69
2024/01/17 05:48:13;;;;;;;47.10;24.80;;;;;;;-4.22;82.34;99757.55;112854;241;38877;-70
2024/01/17 05:50:47;;;;;;;45.00;26.00;;;;;;;-4.23;82.28;99753.44;112902;241;40011;-69
2024/01/17 05:53:21;;;;;;;44.90;23.20;;;;;;;-4.23;82.50;99754.83;112854;241;38521;-71
2024/01/17 05:55:54;;;;;;;38.10;21.30;;;;;;;-4.19;82.35;99749.23;112873;241;39618;-69
2024/01/17 05:58:28;;;;;;;43.10;22.10;;;;;;;-4.15;82.22;99746.20;112882;241;40146;-69
2024/01/17 06:01:16;;;;;;;49.60;24.60;;;;;;;-4.13;81.83;99740.95;112862;241;38286;-69
2024/01/17 06:04:01;;;;;;;46.00;24.70;;;;;;;-4.15;81.80;99739.55;112877;241;38407;-69
2024/01/17 06:06:46;;;;;;;49.70;25.80;;;;;;;-4.17;81.87;99738.18;112890;241;38265;-69
2024/01/17 06:09:24;;;;;;;49.60;24.80;;;;;;;-4.17;81.82;99744.31;112877;241;38903;-69
2024/01/17 06:11:59;;;;;;;50.80;25.50;;;;;;;-4.22;81.68;99749.20;112869;241;38775;-70
2024/01/17 06:14:33;;;;;;;49.20;23.80;;;;;;;-4.31;81.62;99751.13;112850;241;38355;-70
2024/01/17 06:17:07;;;;;;;47.50;24.60;;;;;;;-4.35;81.67;99758.23;112862;241;39783;-69
2024/01/17 06:19:41;;;;;;;43.30;21.90;;;;;;;-4.44;81.59;99759.48;112865;241;38532;-69
2024/01/17 06:22:19;;;;;;;44.50;21.40;;;;;;;-4.48;81.62;99760.97;112855;241;38352;-69
2024/01/17 06:24:52;;;;;;;42.60;21.70;;;;;;;-4.49;81.53;99758.56;112878;241;38646;-68
2024/01/17 06:27:26;;;;;;;40.60;21.70;;;;;;;-4.48;81.53;99761.48;112844;241;38264;-69
2024/01/17 06:30:00;;;;;;;41.70;22.00;;;;;;;-4.50;81.31;99762.64;112858;241;38592;-70
2024/01/17 06:32:34;;;;;;;48.40;24.10;;;;;;;-4.57;81.20;99766.31;112903;241;40178;-69
2024/01/17 06:35:10;;;;;;;45.60;24.10;;;;;;;-4.63;81.17;99765.20;112886;241;38408;-69
2024/01/17 06:37:44;;;;;;;48.20;25.50;;;;;;;-4.74;81.13;99765.73;112916;241;38613;-69
2024/01/17 06:40:18;;;;;;;46.60;24.40;;;;;;;-4.83;81.24;99758.29;112865;241;38373;-69
2024/01/17 06:42:52;;;;;;;42.50;23.30;;;;;;;-4.89;81.55;99759.05;112883;241;40636;-69
2024/01/17 06:45:26;;;;;;;89.60;34.50;;;;;;;-4.96;81.36;99754.19;112883;241;38559;-69
2024/01/17 06:48:02;;;;;;;46.50;22.10;;;;;;;-5.06;80.99;99749.96;112905;241;38278;-70
2024/01/17 06:50:35;;;;;;;37.80;20.70;;;;;;;-5.15;81.20;99747.61;112869;241;38317;-69
2024/01/17 06:53:11;;;;;;;61.40;29.10;;;;;;;-5.19;81.21;99744.15;112875;241;38402;-69
2024/01/17 06:55:45;;;;;;;71.10;34.10;;;;;;;-5.20;81.53;99739.55;112867;241;38043;-69
2024/01/17 06:58:19;;;;;;;95.60;42.40;;;;;;;-5.19;81.67;99738.89;112742;241;172947;-69
2024/01/17 07:00:53;;;;;;;49.20;26.70;;;;;;;-5.22;81.71;99731.04;112772;241;175534;-69
2024/01/17 07:03:27;;;;;;;47.90;24.60;;;;;;;-5.23;82.04;99731.02;112853;241;40198;-70
2024/01/17 07:06:01;;;;;;;45.20;24.30;;;;;;;-5.22;82.18;99727.97;112894;241;38940;-70
2024/01/17 07:08:34;;;;;;;48.00;26.20;;;;;;;-5.23;82.22;99722.33;112878;241;38881;-70
2024/01/17 07:11:09;;;;;;;40.80;22.30;;;;;;;-5.22;82.16;99720.15;112853;241;38597;-70
2024/01/17 07:13:43;;;;;;;39.20;20.20;;;;;;;-5.19;82.22;99719.33;112835;241;40105;-70
2024/01/17 07:16:18;;;;;;;37.70;21.20;;;;;;;-5.15;82.13;99716.17;112836;241;40114;-70
2024/01/17 07:18:53;;;;;;;39.40;21.90;;;;;;;-5.12;81.83;99713.30;112898;241;38373;-70
2024/01/17 07:21:27;;;;;;;41.00;21.30;;;;;;;-5.10;81.72;99706.02;112891;241;38359;-71
2024/01/17 07:24:00;;;;;;;47.50;23.40;;;;;;;-5.15;81.69;99701.03;112893;241;38415;-71
2024/01/17 07:26:34;;;;;;;45.00;25.10;;;;;;;-5.13;82.14;99698.85;112878;241;38606;-69
2024/01/17 07:29:08;;;;;;;48.50;25.50;;;;;;;-5.09;82.14;99690.90;112900;241;38814;-69
2024/01/17 07:31:44;;;;;;;47.10;26.40;;;;;;;-4.96;82.51;99688.89;112900;241;38604;-71
2024/01/17 07:34:26;;;;;;;51.90;27.60;;;;;;;-4.73;82.61;99686.27;112882;241;38411;-71
2024/01/17 07:37:08;;;;;;;41.10;23.70;;;;;;;-4.29;83.17;99678.11;112873;241;38380;-70
2024/01/17 07:39:57;;;;;;;41.80;22.40;;;;;;;-3.80;83.27;99675.52;112910;241;38557;-71
2024/01/17 07:42:41;;;;;;;40.90;22.00;;;;;;;-3.26;82.73;99667.23;112906;241;38273;-69
2024/01/17 07:45:31;;;;;;;40.70;22.20;;;;;;;-2.74;82.13;99663.41;112911;241;38366;-69
2024/01/17 07:48:05;;;;;;;40.80;22.40;;;;;;;-2.26;81.78;99654.69;112829;241;38901;-71
2024/01/17 07:50:40;;;;;;;38.10;23.00;;;;;;;-1.88;80.14;99652.02;112872;241;38449;-70
2024/01/17 07:53:16;;;;;;;36.20;20.60;;;;;;;-1.59;80.31;99649.96;112886;241;38443;-70
2024/01/17 07:55:50;;;;;;;37.60;22.30;;;;;;;-1.28;79.46;99648.73;112871;241;38749;-70
2024/01/17 07:58:24;;;;;;;38.90;22.20;;;;;;;-1.04;77.33;99643.72;112913;241;38227;-71
2024/01/17 08:00:58;;;;;;;45.30;23.10;;;;;;;-1.09;75.89;99642.54;112900;241;39311;-69
2024/01/17 08:03:32;;;;;;;43.60;23.20;;;;;;;-1.30;75.71;99640.52;112868;241;38337;-69
2024/01/17 08:06:06;;;;;;;42.80;23.80;;;;;;;-1.47;75.10;99635.59;112911;241;38426;-68
2024/01/17 08:08:40;;;;;;;41.70;23.90;;;;;;;-1.68;74.72;99636.96;112896;241;39828;-69
2024/01/17 08:11:14;;;;;;;41.00;23.80;;;;;;;-1.87;74.28;99630.64;112900;241;40018;-70
2024/01/17 08:13:48;;;;;;;41.00;22.40;;;;;;;-2.05;74.44;99630.64;112896;241;38582;-70
2024/01/17 08:16:21;;;;;;;44.50;23.60;;;;;;;-2.20;74.44;99623.61;112886;241;38680;-69
2024/01/17 08:18:55;;;;;;;39.80;24.10;;;;;;;-2.33;74.45;99621.54;112937;241;38436;-69
2024/01/17 08:21:29;;;;;;;42.20;24.00;;;;;;;-2.48;74.48;99619.45;112933;241;38407;-70
2024/01/17 08:24:03;;;;;;;42.70;24.00;;;;;;;-2.57;74.71;99617.37;112954;241;38304;-70
2024/01/17 08:26:37;;;;;;;42.90;23.40;;;;;;;-2.67;75.20;99618.03;112910;241;38482;-69
2024/01/17 08:29:15;;;;;;;40.10;22.80;;;;;;;-2.72;74.95;99619.37;112945;241;38481;-69
2024/01/17 08:31:50;;;;;;;41.60;22.40;;;;;;;-2.77;75.11;99620.55;112809;241;189664;-69
2024/01/17 08:34:23;;;;;;;41.00;22.20;;;;;;;-2.81;75.10;99618.31;112895;241;38594;-70
2024/01/17 08:37:00;;;;;;;48.50;24.50;;;;;;;-2.85;75.59;99615.58;112919;241;40123;-69
2024/01/17 08:39:35;;;;;;;47.40;26.20;;;;;;;-2.86;75.61;99622.39;112911;241;39270;-67
2024/01/17 08:45:34;;;;;;;48.40;26.90;;;;;;;-2.89;76.17;99625.80;112903;238;39135;-67
2024/01/17 08:48:09;;;;;;;45.10;25.30;;;;;;;-2.90;76.25;99622.55;112908;241;175347;-69
2024/01/17 08:50:42;;;;;;;45.60;23.90;;;;;;;-2.92;76.12;99625.27;113042;240;38790;-69
2024/01/17 08:53:19;;;;;;;43.10;23.20;;;;;;;-2.92;76.07;99617.92;113026;241;40036;-69
2024/01/17 08:55:53;;;;;;;39.70;22.60;;;;;;;-2.83;76.20;99615.25;113022;241;38373;-68
2024/01/17 08:58:27;;;;;;;41.00;24.50;;;;;;;-2.75;75.88;99614.08;112912;241;39508;-68
2024/01/17 09:01:02;;;;;;;48.30;27.50;;;;;;;-2.69;76.05;99612.22;113051;240;38529;-69
2024/01/17 09:03:36;;;;;;;44.10;24.60;;;;;;;-2.67;75.66;99603.50;113021;240;40326;-70
2024/01/17 09:06:11;;;;;;;41.80;25.10;;;;;;;-2.67;75.72;99598.90;113051;240;38251;-70
2024/01/17 09:08:45;;;;;;;49.30;25.70;;;;;;;-2.64;75.91;99595.67;113049;240;39635;-70
2024/01/17 09:11:19;;;;;;;45.00;25.40;;;;;;;-2.63;75.99;99593.11;113048;240;38517;-70
2024/01/17 09:13:53;;;;;;;46.00;25.50;;;;;;;-2.60;76.33;99586.63;113043;240;38405;-69
2024/01/17 09:16:30;;;;;;;48.90;23.80;;;;;;;-2.47;76.14;99579.99;113039;240;38976;-68
2024/01/17 09:19:04;;;;;;;44.80;23.00;;;;;;;-2.29;75.74;99575.25;113058;240;39539;-68
2024/01/17 09:21:38;;;;;;;43.10;24.20;;;;;;;-2.01;75.88;99570.15;113033;240;38398;-69
2024/01/17 09:24:12;;;;;;;42.30;24.60;;;;;;;-1.74;74.62;99567.02;113051;240;38253;-69
2024/01/17 09:26:46;;;;;;;42.00;25.10;;;;;;;-1.51;73.95;99564.61;113035;241;38984;-70
2024/01/17 09:29:19;;;;;;;37.50;23.20;;;;;;;-1.24;74.05;99552.03;113063;241;38245;-71
2024/01/17 09:31:53;;;;;;;41.80;23.10;;;;;;;-0.95;73.57;99540.96;113060;240;38947;-70
2024/01/17 09:34:27;;;;;;;37.70;23.70;;;;;;;-0.65;73.38;99533.27;113059;240;38758;-70
2024/01/17 09:37:11;;;;;;;40.10;23.50;;;;;;;-0.36;72.44;99525.19;113053;240;38291;-68
2024/01/17 09:39:58;;;;;;;40.00;22.90;;;;;;;0.02;71.04;99518.20;112804;241;174945;-68
2024/01/17 09:42:32;;;;;;;35.90;22.00;;;;;;;0.32;70.32;99510.36;113038;241;38262;-70
2024/01/17 09:45:06;;;;;;;39.30;23.40;;;;;;;0.72;69.97;99502.54;113048;240;39719;-70
2024/01/17 09:47:40;;;;;;;38.30;22.80;;;;;;;1.09;67.70;99493.48;113074;240;39056;-69
2024/01/17 09:50:14;;;;;;;36.00;21.30;;;;;;;1.45;66.96;99488.15;113059;241;38758;-71
2024/01/17 09:52:48;;;;;;;35.50;21.10;;;;;;;1.82;65.64;99479.98;113079;240;38676;-69
2024/01/17 09:55:22;;;;;;;33.40;20.70;;;;;;;2.04;65.43;99471.71;113052;240;38273;-71
2024/01/17 09:57:58;;;;;;;30.10;20.40;;;;;;;2.25;64.62;99468.05;113051;240;38274;-69
2024/01/17 10:00:32;;;;;;;36.10;22.00;;;;;;;2.29;63.63;99456.61;112330;240;918535;-69
2024/01/17 10:03:06;;;;;;;34.20;21.90;;;;;;;2.38;64.01;99447.33;113054;240;38650;-69
2024/01/17 10:05:40;;;;;;;33.10;19.70;;;;;;;2.54;63.96;99442.70;113039;240;38532;-69
2024/01/17 10:08:14;;;;;;;33.60;21.00;;;;;;;2.80;63.37;99434.58;113036;240;38331;-71
2024/01/17 10:10:48;;;;;;;32.80;20.80;;;;;;;2.96;61.72;99430.29;113062;241;38970;-71
2024/01/17 10:13:24;;;;;;;32.10;21.00;;;;;;;3.21;62.07;99419.90;113039;240;38395;-71
2024/01/17 10:16:01;;;;;;;30.00;20.10;;;;;;;3.47;61.48;99410.30;113007;240;38298;-71
2024/01/17 10:18:35;;;;;;;28.00;19.00;;;;;;;3.70;61.27;99401.45;113049;240;38343;-71
2024/01/17 10:21:14;;;;;;;29.60;18.90;;;;;;;3.83;60.32;99393.18;113052;241;38940;-71
2024/01/17 10:23:50;;;;;;;36.10;20.30;;;;;;;3.95;60.36;99387.84;112894;241;39608;-70
2024/01/17 10:26:27;;;;;;;31.50;18.40;;;;;;;4.07;60.52;99380.61;113034;241;39167;-71
2024/01/17 10:29:04;;;;;;;33.10;18.70;;;;;;;4.29;58.81;99373.97;113016;241;39667;-70
2024/01/17 10:31:40;;;;;;;28.50;18.30;;;;;;;4.36;59.42;99365.12;113042;240;38397;-70
2024/01/17 10:34:16;;;;;;;28.50;18.20;;;;;;;4.44;58.07;99359.04;113071;241;38379;-71
2024/01/17 10:36:49;;;;;;;33.80;19.00;;;;;;;4.22;58.09;99353.29;113041;241;39773;-70
2024/01/17 10:39:25;;;;;;;28.90;17.80;;;;;;;3.92;57.34;99348.77;113062;241;38379;-71
2024/01/17 10:42:00;;;;;;;34.10;20.40;;;;;;;3.52;57.17;99341.04;113058;241;38711;-69
2024/01/17 10:44:34;;;;;;;32.20;19.10;;;;;;;3.11;57.34;99335.52;113041;240;38443;-69
2024/01/17 10:47:08;;;;;;;35.10;21.30;;;;;;;2.75;57.38;99334.13;113048;240;38268;-70
2024/01/17 10:49:44;;;;;;;36.50;21.50;;;;;;;2.35;57.76;99327.44;112948;240;175087;-71
2024/01/17 10:52:21;;;;;;;36.10;21.00;;;;;;;1.95;57.89;99319.66;113053;241;38339;-70
2024/01/17 10:55:04;;;;;;;37.70;21.30;;;;;;;1.69;58.82;99321.85;113012;241;39924;-71
2024/01/17 10:57:41;;;;;;;36.00;22.30;;;;;;;1.45;59.12;99319.20;113049;241;39335;-71
2024/01/17 11:00:17;;;;;;;36.30;22.90;;;;;;;1.20;59.68;99313.13;113045;240;38560;-70
2024/01/17 11:02:52;;;;;;;39.90;22.60;;;;;;;0.92;59.35;99311.00;113053;241;39851;-69
2024/01/17 11:05:26;;;;;;;39.50;22.20;;;;;;;0.69;60.33;99301.06;113054;240;39077;-69
2024/01/17 11:08:00;;;;;;;40.50;22.70;;;;;;;0.55;60.94;99294.93;113036;240;38743;-70
2024/01/17 11:10:35;;;;;;;42.10;23.00;;;;;;;0.40;61.29;99300.11;113041;240;38435;-70
2024/01/17 11:13:09;;;;;;;39.40;23.00;;;;;;;0.24;61.23;99294.52;113040;241;39574;-70
2024/01/17 11:15:43;;;;;;;48.00;25.50;;;;;;;0.08;61.83;99292.14;113066;240;38883;-70
2024/01/17 11:18:17;;;;;;;50.00;28.80;;;;;;;-0.02;62.23;99288.67;113057;241;38475;-70
2024/01/17 11:20:51;;;;;;;43.70;25.70;;;;;;;-0.10;62.63;99283.11;113040;240;38709;-69
2024/01/17 11:23:29;;;;;;;51.40;27.30;;;;;;;-0.24;62.25;99274.36;113032;240;39718;-69
2024/01/17 11:26:11;;;;;;;47.70;26.60;;;;;;;-0.41;62.76;99264.46;113037;241;38302;-69
2024/01/17 11:28:56;;;;;;;44.50;24.80;;;;;;;-0.50;63.32;99252.73;113047;241;39356;-70
2024/01/17 11:31:38;;;;;;;57.30;30.00;;;;;;;-0.50;63.87;99246.40;113065;241;40245;-69
2024/01/17 11:34:12;;;;;;;44.00;26.20;;;;;;;-0.50;64.25;99239.19;113051;240;38257;-69
2024/01/17 11:36:47;;;;;;;47.10;26.10;;;;;;;-0.50;64.51;99233.20;113034;240;38327;-69
2024/01/17 11:39:22;;;;;;;44.90;26.30;;;;;;;-0.50;64.46;99223.95;113008;241;38567;-72
2024/01/17 11:41:56;;;;;;;41.50;25.50;;;;;;;-0.50;64.68;99216.06;113036;241;38565;-70
2024/01/17 11:44:29;;;;;;;42.00;25.80;;;;;;;-0.46;64.80;99207.98;113036;241;38233;-70
2024/01/17 11:47:03;;;;;;;41.50;23.00;;;;;;;-0.47;64.50;99205.42;113020;241;39230;-69
2024/01/17 11:49:45;;;;;;;41.40;25.50;;;;;;;-0.50;64.60;99201.34;113049;241;38354;-69
2024/01/17 11:52:35;;;;;;;40.00;22.70;;;;;;;-0.54;64.90;99198.83;113044;241;39492;-69
2024/01/17 11:55:11;;;;;;;35.40;21.80;;;;;;;-0.52;65.06;99196.74;113106;241;38399;-69